createdAt,value
2022-12-11T00:00:55.896Z,98.88
2022-12-11T00:03:59.017Z,98.94
2022-12-11T00:07:02.380Z,98.88
2022-12-11T00:10:06.172Z,98.83
2022-12-11T00:13:09.232Z,98.74
2022-12-11T00:16:13.056Z,98.59
2022-12-11T00:19:18.932Z,98.70
2022-12-11T00:22:21.858Z,98.61
2022-12-11T00:25:24.353Z,98.66
2022-12-11T00:28:28.075Z,98.75
2022-12-11T00:31:31.950Z,98.60
2022-12-11T00:34:35.146Z,98.58
2022-12-11T00:37:38.667Z,98.62
2022-12-11T00:40:50.625Z,98.51
2022-12-11T00:43:53.586Z,98.50
2022-12-11T00:46:56.353Z,98.34
2022-12-11T00:49:59.318Z,98.31
2022-12-11T00:53:04.737Z,98.30
2022-12-11T00:56:18.720Z,98.08
2022-12-11T00:59:23.736Z,98.21
2022-12-11T01:02:30.742Z,98.12
2022-12-11T01:05:33.941Z,98.14
2022-12-11T01:08:39.020Z,98.07
2022-12-11T01:11:43.022Z,97.92
2022-12-11T01:14:45.656Z,97.95
2022-12-11T01:17:49.051Z,97.79
2022-12-11T01:20:51.920Z,97.64
2022-12-11T01:23:54.735Z,97.56
2022-12-11T01:26:57.354Z,97.62
2022-12-11T01:30:08.524Z,97.58
2022-12-11T01:33:11.988Z,97.52
2022-12-11T01:36:19.997Z,97.71
2022-12-11T01:39:22.853Z,97.61
2022-12-11T01:42:26.522Z,97.56
2022-12-11T01:45:47.620Z,97.61
2022-12-11T01:48:50.937Z,97.58
2022-12-11T01:52:01.058Z,97.71
2022-12-11T01:55:04.516Z,97.71
2022-12-11T01:58:10.302Z,97.71
2022-12-11T02:01:21.979Z,97.61
2022-12-11T02:04:26.109Z,97.67
2022-12-11T02:07:34.860Z,97.57
2022-12-11T02:10:50.396Z,97.56
2022-12-11T02:14:03.890Z,97.53
2022-12-11T02:17:16.353Z,97.58
2022-12-11T02:20:27.099Z,97.54
2022-12-11T02:23:39.101Z,97.60
2022-12-11T02:27:04.053Z,97.56
2022-12-11T02:30:07.504Z,97.53
2022-12-11T02:33:12.895Z,97.54
2022-12-11T02:36:18.230Z,97.76
2022-12-11T02:39:24.779Z,97.37
2022-12-11T02:42:31.396Z,97.51
2022-12-11T02:45:35.626Z,97.65
2022-12-11T02:48:41.731Z,97.53
2022-12-11T02:51:44.640Z,97.56
2022-12-11T02:54:49.575Z,97.59
2022-12-11T02:58:09.773Z,97.69
2022-12-11T03:01:12.798Z,97.67
2022-12-11T03:04:16.161Z,97.76
2022-12-11T03:07:25.378Z,97.66
2022-12-11T03:10:28.279Z,97.70
2022-12-11T03:13:32.068Z,97.71
2022-12-11T03:16:42.856Z,97.48
2022-12-11T03:20:06.567Z,97.57
2022-12-11T03:23:17.688Z,97.49
2022-12-11T03:26:22.945Z,97.24
2022-12-11T03:29:36.765Z,97.29
2022-12-11T03:32:51.864Z,97.30
2022-12-11T03:35:59.555Z,97.40
2022-12-11T03:39:12.947Z,97.24
2022-12-11T03:42:19.040Z,97.36
2022-12-11T03:45:23.589Z,97.11
2022-12-11T03:48:31.088Z,96.98
2022-12-11T03:51:36.349Z,97.08
2022-12-11T03:54:42.111Z,97.03
2022-12-11T03:57:45.356Z,96.91
2022-12-11T04:00:48.201Z,96.94
2022-12-11T04:03:51.240Z,96.96
2022-12-11T04:06:54.580Z,96.87
2022-12-11T04:09:57.679Z,96.88
2022-12-11T04:13:00.188Z,96.88
2022-12-11T04:16:02.947Z,96.74
2022-12-11T04:19:24.883Z,96.63
2022-12-11T04:22:46.994Z,96.68
2022-12-11T04:25:50.013Z,96.58
2022-12-11T04:28:53.229Z,96.60
2022-12-11T04:31:55.682Z,97.01
2022-12-11T04:34:58.318Z,96.96
2022-12-11T04:38:01.625Z,96.77
2022-12-11T04:41:14.427Z,96.83
2022-12-11T04:44:17.972Z,96.93
2022-12-11T04:47:24.000Z,96.90
2022-12-11T04:50:27.462Z,96.82
2022-12-11T04:53:30.789Z,96.65
2022-12-11T04:56:33.622Z,96.72
2022-12-11T04:59:38.357Z,96.76
2022-12-11T05:02:42.440Z,96.58
2022-12-11T05:05:53.956Z,96.61
2022-12-11T05:08:56.395Z,96.41
2022-12-11T05:11:59.397Z,96.28
2022-12-11T05:15:02.606Z,96.22
2022-12-11T05:18:06.234Z,96.29
2022-12-11T05:21:12.544Z,96.28
2022-12-11T05:24:15.638Z,96.15
2022-12-11T05:27:19.077Z,96.04
2022-12-11T05:30:21.925Z,95.96
2022-12-11T05:33:24.951Z,96.04
2022-12-11T05:36:33.435Z,95.75
2022-12-11T05:39:43.141Z,95.93
2022-12-11T05:42:46.724Z,96.13
2022-12-11T05:45:49.587Z,95.81
2022-12-11T05:48:56.678Z,95.64
2022-12-11T05:52:02.400Z,95.62
2022-12-11T05:55:06.855Z,95.59
2022-12-11T05:58:09.800Z,95.49
2022-12-11T06:01:19.005Z,95.54
2022-12-11T06:04:22.683Z,95.56
2022-12-11T06:07:26.672Z,95.70
2022-12-11T06:10:30.118Z,95.52
2022-12-11T06:13:33.743Z,95.61
2022-12-11T06:16:40.329Z,95.46
2022-12-11T06:19:49.204Z,95.38
2022-12-11T06:22:52.794Z,95.55
2022-12-11T06:25:56.652Z,95.25
2022-12-11T06:29:00.588Z,95.05
2022-12-11T06:32:07.158Z,94.88
2022-12-11T06:35:13.916Z,95.01
2022-12-11T06:38:21.141Z,94.85
2022-12-11T06:41:26.301Z,94.48
2022-12-11T06:44:30.905Z,94.80
2022-12-11T06:47:37.186Z,94.35
2022-12-11T06:50:40.458Z,94.50
2022-12-11T06:53:44.592Z,94.69
2022-12-11T06:56:47.820Z,94.78
2022-12-11T06:59:51.022Z,94.46
2022-12-11T07:03:04.164Z,94.62
2022-12-11T07:06:14.781Z,94.64
2022-12-11T07:09:22.995Z,94.45
2022-12-11T07:12:26.252Z,94.34
2022-12-11T07:15:29.605Z,94.13
2022-12-11T07:18:34.894Z,93.81
2022-12-11T07:21:40.919Z,93.64
2022-12-11T07:24:44.799Z,93.39
2022-12-11T07:27:52.002Z,92.98
2022-12-11T07:31:01.889Z,92.76
2022-12-11T07:34:07.957Z,92.57
2022-12-11T07:37:12.143Z,92.13
2022-12-11T07:40:21.079Z,91.89
2022-12-11T07:43:26.223Z,92.12
2022-12-11T07:46:37.824Z,91.67
2022-12-11T07:49:49.476Z,91.76
2022-12-11T07:52:54.957Z,91.31
2022-12-11T07:56:00.159Z,90.83
2022-12-11T07:59:06.454Z,90.90
2022-12-11T08:02:12.100Z,90.91
2022-12-11T08:05:20.411Z,90.79
2022-12-11T08:08:31.986Z,90.76
2022-12-11T08:11:39.746Z,90.50
2022-12-11T08:14:45.198Z,90.80
2022-12-11T08:17:50.076Z,90.38
2022-12-11T08:20:57.583Z,90.10
2022-12-11T08:24:09.911Z,89.71
2022-12-11T08:27:15.353Z,89.22
2022-12-11T08:30:25.377Z,89.02
2022-12-11T08:33:31.146Z,89.14
2022-12-11T08:36:47.073Z,88.48
2022-12-11T08:39:51.312Z,88.42
2022-12-11T08:42:57.638Z,88.53
2022-12-11T08:46:07.767Z,88.29
2022-12-11T08:49:12.899Z,87.57
2022-12-11T08:52:23.092Z,87.53
2022-12-11T08:55:30.769Z,87.35
2022-12-11T08:58:43.495Z,87.67
2022-12-11T09:01:50.711Z,87.15
2022-12-11T09:04:57.971Z,86.62
2022-12-11T09:08:08.147Z,87.02
2022-12-11T09:11:33.551Z,86.92
2022-12-11T09:14:48.914Z,87.07
2022-12-11T09:17:53.655Z,86.33
2022-12-11T09:21:08.644Z,86.49
2022-12-11T09:24:14.559Z,85.95
2022-12-11T09:27:24.547Z,85.86
2022-12-11T09:30:42.619Z,86.22
2022-12-11T09:33:56.770Z,85.79
2022-12-11T09:37:12.620Z,85.50
2022-12-11T09:40:15.980Z,85.75
2022-12-11T09:43:37.836Z,85.49
2022-12-11T09:46:44.712Z,85.36
2022-12-11T09:50:08.726Z,85.87
2022-12-11T09:53:31.031Z,85.62
2022-12-11T09:56:58.114Z,85.77
2022-12-11T10:00:32.801Z,85.51
2022-12-11T10:03:50.608Z,85.00
2022-12-11T10:07:21.832Z,85.12
2022-12-11T10:10:51.854Z,85.13
2022-12-11T10:14:16.961Z,85.02
2022-12-11T10:17:29.159Z,85.34
2022-12-11T10:20:40.412Z,85.36
2022-12-11T10:23:51.755Z,85.12
2022-12-11T10:27:00.649Z,85.28
2022-12-11T10:30:17.725Z,85.37
2022-12-11T10:34:20.468Z,85.45
2022-12-11T10:37:29.590Z,85.22
2022-12-11T10:40:36.527Z,85.77
2022-12-11T10:43:56.573Z,85.92
2022-12-11T10:47:14.617Z,85.77
2022-12-11T10:50:28.640Z,86.01
2022-12-11T10:53:46.643Z,86.10
2022-12-11T10:56:54.606Z,86.04
2022-12-11T11:00:00.959Z,85.91
2022-12-11T11:03:08.047Z,85.41
2022-12-11T11:06:19.551Z,85.88
2022-12-11T11:09:54.530Z,84.83
2022-12-11T11:13:03.837Z,84.16
2022-12-11T11:16:16.620Z,83.57
2022-12-11T11:19:30.064Z,83.42
2022-12-11T11:22:41.602Z,82.61
2022-12-11T11:26:02.520Z,83.06
2022-12-11T11:29:27.041Z,83.05
2022-12-11T11:32:36.729Z,83.33
2022-12-11T11:35:52.882Z,84.00
2022-12-11T11:39:26.476Z,83.86
2022-12-11T11:42:49.088Z,84.18
2022-12-11T11:46:00.437Z,84.34
2022-12-11T11:49:21.021Z,84.67
2022-12-11T11:53:01.820Z,84.24
2022-12-11T11:56:24.782Z,84.44
2022-12-11T11:59:44.584Z,84.07
2022-12-11T12:03:06.499Z,84.05
2022-12-11T12:06:20.543Z,83.92
2022-12-11T12:09:49.621Z,84.29
2022-12-11T12:13:30.175Z,84.06
2022-12-11T12:16:53.011Z,83.65
2022-12-11T12:20:28.894Z,83.74
2022-12-11T12:23:37.565Z,83.89
2022-12-11T12:27:00.425Z,83.47
2022-12-11T12:30:23.326Z,83.64
2022-12-11T12:33:53.561Z,83.76
2022-12-11T12:37:31.674Z,82.84
2022-12-11T12:40:55.884Z,83.67
2022-12-11T12:44:24.781Z,83.72
2022-12-11T12:47:34.802Z,83.66
2022-12-11T12:50:53.850Z,83.57
2022-12-11T12:54:12.570Z,83.28
2022-12-11T12:57:25.460Z,83.80
2022-12-11T13:00:44.407Z,83.55
2022-12-11T13:03:57.587Z,83.36
2022-12-11T13:07:29.633Z,83.00
2022-12-11T13:10:54.889Z,83.55
2022-12-11T13:14:07.978Z,83.72
2022-12-11T13:17:21.515Z,83.32
2022-12-11T13:20:35.861Z,83.21
2022-12-11T13:23:41.338Z,83.57
2022-12-11T13:26:57.518Z,83.70
2022-12-11T13:30:15.475Z,83.22
2022-12-11T13:33:28.540Z,83.16
2022-12-11T13:36:41.570Z,82.88
2022-12-11T13:40:05.524Z,83.30
2022-12-11T13:43:21.780Z,82.65
2022-12-11T13:46:34.181Z,82.79
2022-12-11T13:50:09.413Z,83.02
2022-12-11T13:53:24.146Z,83.16
2022-12-11T13:56:35.619Z,82.49
2022-12-11T13:59:44.735Z,82.43
2022-12-11T14:02:52.117Z,82.42
2022-12-11T14:06:02.691Z,82.33
2022-12-11T14:09:09.745Z,82.90
2022-12-11T14:12:26.608Z,83.04
2022-12-11T14:15:35.610Z,83.08
2022-12-11T14:18:46.567Z,83.20
2022-12-11T14:22:11.104Z,83.48
2022-12-11T14:25:26.114Z,83.15
2022-12-11T14:28:45.452Z,82.89
2022-12-11T14:31:56.412Z,82.69
2022-12-11T14:35:18.233Z,83.06
2022-12-11T14:38:37.577Z,82.80
2022-12-11T14:41:49.098Z,82.50
2022-12-11T14:45:32.786Z,82.42
2022-12-11T14:49:08.563Z,82.87
2022-12-11T14:52:26.186Z,82.59
2022-12-11T14:55:38.657Z,82.87
2022-12-11T14:58:54.214Z,83.39
2022-12-11T15:02:32.674Z,83.74
2022-12-11T15:05:55.744Z,82.94
2022-12-11T15:09:18.602Z,83.01
2022-12-11T15:12:24.541Z,83.25
2022-12-11T15:15:30.724Z,83.15
2022-12-11T15:18:43.336Z,83.51
2022-12-11T15:21:48.274Z,82.78
2022-12-11T15:24:55.470Z,82.94
2022-12-11T15:28:08.896Z,82.78
2022-12-11T15:31:31.081Z,82.97
2022-12-11T15:35:04.485Z,82.87
2022-12-11T15:38:29.524Z,82.45
2022-12-11T15:41:34.927Z,82.44
2022-12-11T15:44:45.112Z,82.42
2022-12-11T15:47:59.578Z,82.38
2022-12-11T15:51:18.482Z,82.56
2022-12-11T15:54:30.590Z,81.81
2022-12-11T15:57:45.625Z,82.23
2022-12-11T16:00:53.508Z,82.42
2022-12-11T16:04:13.993Z,82.46
2022-12-11T16:07:26.518Z,82.30
2022-12-11T16:10:32.747Z,82.03
2022-12-11T16:13:43.539Z,81.84
2022-12-11T16:16:55.655Z,82.02
2022-12-11T16:20:11.473Z,82.14
2022-12-11T16:23:26.580Z,81.94
2022-12-11T16:26:36.091Z,82.09
2022-12-11T16:29:46.533Z,82.09
2022-12-11T16:33:04.807Z,82.01
2022-12-11T16:36:18.743Z,82.06
2022-12-11T16:39:35.584Z,82.10
2022-12-11T16:42:49.404Z,82.04
2022-12-11T16:45:59.638Z,81.73
2022-12-11T16:49:14.824Z,81.54
2022-12-11T16:52:27.539Z,81.63
2022-12-11T16:55:42.534Z,81.82
2022-12-11T16:58:53.710Z,81.87
2022-12-11T17:02:04.254Z,82.15
2022-12-11T17:05:16.884Z,82.22
2022-12-11T17:08:22.510Z,82.07
2022-12-11T17:11:38.387Z,82.01
2022-12-11T17:14:53.108Z,82.46
2022-12-11T17:18:01.084Z,82.08
2022-12-11T17:21:16.503Z,82.23
2022-12-11T17:24:28.495Z,81.85
2022-12-11T17:27:35.721Z,81.92
2022-12-11T17:30:45.678Z,81.93
2022-12-11T17:33:51.864Z,82.19
2022-12-11T17:37:09.465Z,81.76
2022-12-11T17:40:27.988Z,82.03
2022-12-11T17:43:36.942Z,82.04
2022-12-11T17:46:47.688Z,81.99
2022-12-11T17:49:55.130Z,81.65
2022-12-11T17:53:09.796Z,82.20
2022-12-11T17:56:21.590Z,82.04
2022-12-11T17:59:44.544Z,81.97
2022-12-11T18:02:56.516Z,81.96
2022-12-11T18:06:23.493Z,81.80
2022-12-11T18:09:36.452Z,81.63
2022-12-11T18:12:53.863Z,81.59
2022-12-11T18:16:14.666Z,81.48
2022-12-11T18:19:27.575Z,81.69
2022-12-11T18:22:37.556Z,81.97
2022-12-11T18:25:47.832Z,81.88
2022-12-11T18:29:07.022Z,81.51
2022-12-11T18:32:31.386Z,81.97
2022-12-11T18:35:44.432Z,82.00
2022-12-11T18:39:01.950Z,82.20
2022-12-11T18:42:33.436Z,81.69
2022-12-11T18:45:49.613Z,81.78
2022-12-11T18:49:00.378Z,81.83
2022-12-11T18:52:21.366Z,82.02
2022-12-11T18:55:28.954Z,82.16
2022-12-11T18:58:39.496Z,82.18
2022-12-11T19:01:52.509Z,82.20
2022-12-11T19:05:11.078Z,82.31
2022-12-11T19:08:18.747Z,82.34
2022-12-11T19:11:27.552Z,82.44
2022-12-11T19:14:42.437Z,82.71
2022-12-11T19:18:01.354Z,82.94
2022-12-11T19:21:14.466Z,82.93
2022-12-11T19:24:28.479Z,83.07
2022-12-11T19:27:35.711Z,83.11
2022-12-11T19:30:49.570Z,83.36
2022-12-11T19:33:56.835Z,83.10
2022-12-11T19:37:03.313Z,83.32
2022-12-11T19:40:15.472Z,83.22
2022-12-11T19:43:26.107Z,83.28
2022-12-11T19:46:39.601Z,83.21
2022-12-11T19:49:51.461Z,83.13
2022-12-11T19:53:00.669Z,83.41
2022-12-11T19:56:11.354Z,83.40
2022-12-11T19:59:18.270Z,83.49
2022-12-11T20:02:24.587Z,83.32
2022-12-11T20:05:42.520Z,83.33
2022-12-11T20:08:50.571Z,83.56
2022-12-11T20:11:58.100Z,83.64
2022-12-11T20:15:11.784Z,83.53
2022-12-11T20:18:23.552Z,83.42
2022-12-11T20:21:35.440Z,83.46
2022-12-11T20:24:42.762Z,83.67
2022-12-11T20:27:52.006Z,83.62
2022-12-11T20:31:20.677Z,83.52
2022-12-11T20:34:38.233Z,83.51
2022-12-11T20:37:54.410Z,83.58
2022-12-11T20:40:59.748Z,83.73
2022-12-11T20:44:13.479Z,83.71
2022-12-11T20:47:23.481Z,83.75
2022-12-11T20:50:30.068Z,83.84
2022-12-11T20:53:46.371Z,84.00
2022-12-11T20:56:58.416Z,84.06
2022-12-11T21:00:11.792Z,84.25
2022-12-11T21:03:21.823Z,84.34
2022-12-11T21:06:38.880Z,84.61
2022-12-11T21:09:43.454Z,84.71
2022-12-11T21:12:52.850Z,84.68
2022-12-11T21:15:57.436Z,85.08
2022-12-11T21:19:05.516Z,85.07
2022-12-11T21:22:09.239Z,85.20
2022-12-11T21:25:19.003Z,85.54
2022-12-11T21:28:34.949Z,85.83
2022-12-11T21:31:40.452Z,85.99
2022-12-11T21:34:51.337Z,86.20
2022-12-11T21:38:02.451Z,86.27
2022-12-11T21:41:10.707Z,86.42
2022-12-11T21:47:42.598Z,86.12
2022-12-11T21:50:46.683Z,86.14
2022-12-11T21:53:53.132Z,86.22
2022-12-11T21:56:57.479Z,86.27
2022-12-11T22:00:17.315Z,86.66
2022-12-11T22:03:26.513Z,86.47
2022-12-11T22:06:30.470Z,86.47
2022-12-11T22:09:34.668Z,86.26
2022-12-11T22:12:39.496Z,86.25
2022-12-11T22:15:47.221Z,86.15
2022-12-11T22:18:53.988Z,86.54
2022-12-11T22:21:58.124Z,86.88
2022-12-11T22:25:08.779Z,87.46
2022-12-11T22:28:20.373Z,87.42
2022-12-11T22:31:26.820Z,88.16
2022-12-11T22:34:33.619Z,88.07
2022-12-11T22:37:46.502Z,88.34
2022-12-11T22:40:55.400Z,88.78
2022-12-11T22:43:58.833Z,88.92
2022-12-11T22:47:01.857Z,88.86
2022-12-11T22:50:06.473Z,88.81
2022-12-11T22:53:10.824Z,88.53
2022-12-11T22:56:13.911Z,88.29
2022-12-11T22:59:17.632Z,88.14
2022-12-11T23:02:22.389Z,88.98
2022-12-11T23:05:25.976Z,89.24
2022-12-11T23:08:28.750Z,89.51
2022-12-11T23:11:36.472Z,89.61
2022-12-11T23:14:39.589Z,89.09
2022-12-11T23:17:43.683Z,89.39
2022-12-11T23:20:49.578Z,89.64
2022-12-11T23:23:54.059Z,89.59
2022-12-11T23:26:59.954Z,89.45
2022-12-11T23:30:05.590Z,89.51
2022-12-11T23:33:08.512Z,89.52
2022-12-11T23:36:12.175Z,89.60
2022-12-11T23:39:14.957Z,89.28
2022-12-11T23:42:17.754Z,89.13
2022-12-11T23:45:21.191Z,88.87
2022-12-11T23:48:24.729Z,88.69
2022-12-11T23:51:31.614Z,88.40
2022-12-11T23:54:34.407Z,88.20
2022-12-11T23:57:37.076Z,87.93
